sensor_id;sensor_type;location;lat;lon;timestamp;pressure;altitude;pressure_sealevel;temperature;humidity
10480;BME280;12789;42.610;23.040;2022-10-23T00:00:38;94154.22;;;8.61;100.00
10480;BME280;12789;42.610;23.040;2022-10-23T00:03:05;94157.97;;;8.57;100.00
10480;BME280;12789;42.610;23.040;2022-10-23T00:05:32;94153.28;;;8.62;100.00
10480;BME280;12789;42.610;23.040;2022-10-23T00:07:59;94156.59;;;8.64;100.00
10480;BME280;12789;42.610;23.040;2022-10-23T00:10:27;94123.72;;;8.44;100.00
10480;BME280;12789;42.610;23.040;2022-10-23T00:12:54;94167.63;;;8.66;100.00
10480;BME280;12789;42.610;23.040;2022-10-23T00:15:21;94167.72;;;8.65;100.00
10480;BME280;12789;42.610;23.040;2022-10-23T00:17:50;94169.59;;;8.63;100.00
10480;BME280;12789;42.610;23.040;2022-10-23T00:20:17;94160.00;;;8.43;100.00
10480;BME280;12789;42.610;23.040;2022-10-23T00:22:44;94163.88;;;8.37;100.00
10480;BME280;12789;42.610;23.040;2022-10-23T00:25:11;94159.69;;;8.25;100.00
10480;BME280;12789;42.610;23.040;2022-10-23T00:27:38;94153.06;;;8.43;100.00
10480;BME280;12789;42.610;23.040;2022-10-23T00:30:06;94176.06;;;8.57;100.00
10480;BME280;12789;42.610;23.040;2022-10-23T00:32:33;94172.31;;;8.61;100.00
10480;BME280;12789;42.610;23.040;2022-10-23T00:35:01;94177.72;;;8.69;100.00
10480;BME280;12789;42.610;23.040;2022-10-23T00:37:28;94168.22;;;8.59;100.00
10480;BME280;12789;42.610;23.040;2022-10-23T00:39:55;94180.75;;;8.63;100.00
10480;BME280;12789;42.610;23.040;2022-10-23T00:42:22;94191.09;;;8.52;100.00
10480;BME280;12789;42.610;23.040;2022-10-23T00:45:19;94194.84;;;8.59;100.00
10480;BME280;12789;42.610;23.040;2022-10-23T00:47:47;94195.56;;;8.50;100.00
10480;BME280;12789;42.610;23.040;2022-10-23T00:50:18;94194.75;;;8.61;100.00
10480;BME280;12789;42.610;23.040;2022-10-23T00:52:52;94195.56;;;8.61;100.00
10480;BME280;12789;42.610;23.040;2022-10-23T00:55:22;94196.28;;;8.41;100.00
10480;BME280;12789;42.610;23.040;2022-10-23T00:57:50;94199.56;;;8.54;100.00
10480;BME280;12789;42.610;23.040;2022-10-23T01:00:20;94194.75;;;8.50;100.00
10480;BME280;12789;42.610;23.040;2022-10-23T01:02:48;94202.03;;;8.45;100.00
10480;BME280;12789;42.610;23.040;2022-10-23T01:05:17;94190.63;;;8.47;100.00
10480;BME280;12789;42.610;23.040;2022-10-23T01:07:49;94211.06;;;8.50;100.00
10480;BME280;12789;42.610;23.040;2022-10-23T01:10:25;94207.41;;;8.64;100.00
10480;BME280;12789;42.610;23.040;2022-10-23T01:13:00;94216.72;;;8.66;100.00
10480;BME280;12789;42.610;23.040;2022-10-23T01:15:34;94217.88;;;8.51;100.00
10480;BME280;12789;42.610;23.040;2022-10-23T01:18:06;94218.72;;;8.52;100.00
10480;BME280;12789;42.610;23.040;2022-10-23T01:20:42;94216.91;;;8.63;100.00
10480;BME280;12789;42.610;23.040;2022-10-23T01:23:41;94210.09;;;8.62;100.00
10480;BME280;12789;42.610;23.040;2022-10-23T01:26:33;94211.75;;;8.74;100.00
10480;BME280;12789;42.610;23.040;2022-10-23T01:29:08;94208.22;;;8.86;100.00
10480;BME280;12789;42.610;23.040;2022-10-23T01:31:42;94223.00;;;8.95;100.00
10480;BME280;12789;42.610;23.040;2022-10-23T01:34:13;94211.22;;;9.02;100.00
10480;BME280;12789;42.610;23.040;2022-10-23T01:36:44;94195.25;;;9.08;100.00
10480;BME280;12789;42.610;23.040;2022-10-23T01:39:18;94204.41;;;9.12;100.00
10480;BME280;12789;42.610;23.040;2022-10-23T01:41:49;94200.50;;;9.17;100.00
10480;BME280;12789;42.610;23.040;2022-10-23T01:44:23;94205.81;;;9.16;100.00
10480;BME280;12789;42.610;23.040;2022-10-23T01:46:53;94212.47;;;9.18;100.00
10480;BME280;12789;42.610;23.040;2022-10-23T01:49:22;94186.06;;;9.15;100.00
10480;BME280;12789;42.610;23.040;2022-10-23T01:51:53;94203.31;;;9.25;100.00
10480;BME280;12789;42.610;23.040;2022-10-23T01:54:24;94189.22;;;9.50;100.00
10480;BME280;12789;42.610;23.040;2022-10-23T01:56:52;94197.97;;;9.58;100.00
10480;BME280;12789;42.610;23.040;2022-10-23T01:59:24;94194.16;;;9.53;100.00
10480;BME280;12789;42.610;23.040;2022-10-23T02:01:55;94192.63;;;9.71;100.00
10480;BME280;12789;42.610;23.040;2022-10-23T02:04:27;94193.41;;;9.62;100.00
10480;BME280;12789;42.610;23.040;2022-10-23T02:06:55;94192.00;;;9.58;100.00
10480;BME280;12789;42.610;23.040;2022-10-23T02:09:23;94183.53;;;9.56;100.00
10480;BME280;12789;42.610;23.040;2022-10-23T02:11:53;94202.75;;;9.74;100.00
10480;BME280;12789;42.610;23.040;2022-10-23T02:14:31;94200.81;;;9.87;100.00
10480;BME280;12789;42.610;23.040;2022-10-23T02:17:05;94209.19;;;9.79;100.00
10480;BME280;12789;42.610;23.040;2022-10-23T02:19:39;94209.78;;;9.83;100.00
10480;BME280;12789;42.610;23.040;2022-10-23T02:22:11;94224.28;;;9.74;100.00
10480;BME280;12789;42.610;23.040;2022-10-23T02:24:44;94197.06;;;9.80;100.00
10480;BME280;12789;42.610;23.040;2022-10-23T02:27:21;94215.75;;;9.63;100.00
10480;BME280;12789;42.610;23.040;2022-10-23T02:29:54;94217.81;;;9.69;100.00
10480;BME280;12789;42.610;23.040;2022-10-23T02:32:23;94217.28;;;9.86;100.00
10480;BME280;12789;42.610;23.040;2022-10-23T02:34:53;94199.59;;;9.91;100.00
10480;BME280;12789;42.610;23.040;2022-10-23T02:37:20;94211.09;;;9.98;100.00
10480;BME280;12789;42.610;23.040;2022-10-23T02:39:50;94216.28;;;9.98;100.00
10480;BME280;12789;42.610;23.040;2022-10-23T02:42:18;94205.44;;;10.04;100.00
10480;BME280;12789;42.610;23.040;2022-10-23T02:44:55;94205.31;;;10.05;100.00
10480;BME280;12789;42.610;23.040;2022-10-23T02:47:36;94208.81;;;9.84;100.00
10480;BME280;12789;42.610;23.040;2022-10-23T02:50:11;94210.88;;;10.01;100.00
10480;BME280;12789;42.610;23.040;2022-10-23T02:52:46;94205.28;;;9.85;100.00
10480;BME280;12789;42.610;23.040;2022-10-23T02:55:25;94197.19;;;9.99;100.00
10480;BME280;12789;42.610;23.040;2022-10-23T02:57:59;94204.91;;;10.10;100.00
10480;BME280;12789;42.610;23.040;2022-10-23T03:00:31;94214.66;;;10.17;100.00
10480;BME280;12789;42.610;23.040;2022-10-23T03:03:01;94222.09;;;10.11;100.00
10480;BME280;12789;42.610;23.040;2022-10-23T03:05:34;94216.47;;;10.06;100.00
10480;BME280;12789;42.610;23.040;2022-10-23T03:08:02;94231.94;;;10.17;100.00
10480;BME280;12789;42.610;23.040;2022-10-23T03:10:30;94228.41;;;10.18;100.00
10480;BME280;12789;42.610;23.040;2022-10-23T03:12:57;94222.41;;;10.17;100.00
10480;BME280;12789;42.610;23.040;2022-10-23T03:15:24;94226.84;;;10.06;100.00
10480;BME280;12789;42.610;23.040;2022-10-23T03:17:53;94234.00;;;9.82;100.00
10480;BME280;12789;42.610;23.040;2022-10-23T03:20:20;94240.66;;;9.64;100.00
10480;BME280;12789;42.610;23.040;2022-10-23T03:22:48;94245.50;;;9.68;100.00
10480;BME280;12789;42.610;23.040;2022-10-23T03:25:15;94237.75;;;9.57;100.00
10480;BME280;12789;42.610;23.040;2022-10-23T03:27:42;94245.50;;;9.57;100.00
10480;BME280;12789;42.610;23.040;2022-10-23T03:30:10;94243.09;;;9.45;100.00
10480;BME280;12789;42.610;23.040;2022-10-23T03:32:37;94246.59;;;9.55;100.00
10480;BME280;12789;42.610;23.040;2022-10-23T03:35:07;94261.91;;;9.36;100.00
10480;BME280;12789;42.610;23.040;2022-10-23T03:37:34;94258.88;;;9.31;100.00
10480;BME280;12789;42.610;23.040;2022-10-23T03:40:01;94267.34;;;9.33;100.00
10480;BME280;12789;42.610;23.040;2022-10-23T03:42:29;94265.28;;;9.16;100.00
10480;BME280;12789;42.610;23.040;2022-10-23T03:44:56;94271.72;;;9.21;100.00
10480;BME280;12789;42.610;23.040;2022-10-23T03:47:23;94279.00;;;9.16;100.00
10480;BME280;12789;42.610;23.040;2022-10-23T03:49:50;94278.78;;;9.19;100.00
10480;BME280;12789;42.610;23.040;2022-10-23T03:52:19;94281.00;;;9.24;100.00
10480;BME280;12789;42.610;23.040;2022-10-23T03:54:46;94275.63;;;8.94;100.00
10480;BME280;12789;42.610;23.040;2022-10-23T03:57:13;94273.75;;;8.85;100.00
10480;BME280;12789;42.610;23.040;2022-10-23T03:59:40;94282.94;;;8.78;100.00
10480;BME280;12789;42.610;23.040;2022-10-23T04:02:07;94284.13;;;8.74;100.00
10480;BME280;12789;42.610;23.040;2022-10-23T04:04:34;94283.41;;;8.72;100.00
10480;BME280;12789;42.610;23.040;2022-10-23T04:07:01;94291.03;;;8.52;100.00
10480;BME280;12789;42.610;23.040;2022-10-23T04:09:30;94300.06;;;8.57;100.00
10480;BME280;12789;42.610;23.040;2022-10-23T04:11:57;94288.78;;;8.47;100.00
10480;BME280;12789;42.610;23.040;2022-10-23T04:14:24;94306.41;;;8.53;100.00
10480;BME280;12789;42.610;23.040;2022-10-23T04:16:52;94315.34;;;8.93;100.00
10480;BME280;12789;42.610;23.040;2022-10-23T04:19:19;94316.03;;;8.51;100.00
10480;BME280;12789;42.610;23.040;2022-10-23T04:21:46;94339.25;;;8.40;100.00
10480;BME280;12789;42.610;23.040;2022-10-23T04:24:13;94337.00;;;8.36;100.00
10480;BME280;12789;42.610;23.040;2022-10-23T04:26:41;94337.69;;;8.27;100.00
10480;BME280;12789;42.610;23.040;2022-10-23T04:29:08;94314.75;;;8.11;100.00
10480;BME280;12789;42.610;23.040;2022-10-23T04:31:35;94330.50;;;8.19;100.00
10480;BME280;12789;42.610;23.040;2022-10-23T04:34:02;94330.03;;;9.25;100.00
10480;BME280;12789;42.610;23.040;2022-10-23T04:36:30;94337.63;;;8.39;100.00
10480;BME280;12789;42.610;23.040;2022-10-23T04:38:57;94334.88;;;8.19;100.00
10480;BME280;12789;42.610;23.040;2022-10-23T04:41:26;94337.97;;;8.11;100.00
10480;BME280;12789;42.610;23.040;2022-10-23T04:43:54;94340.34;;;7.91;100.00
10480;BME280;12789;42.610;23.040;2022-10-23T04:46:22;94331.63;;;8.04;100.00
10480;BME280;12789;42.610;23.040;2022-10-23T04:48:49;94337.50;;;7.83;100.00
10480;BME280;12789;42.610;23.040;2022-10-23T04:51:16;94335.38;;;8.11;100.00
10480;BME280;12789;42.610;23.040;2022-10-23T04:53:44;94333.88;;;8.09;100.00
10480;BME280;12789;42.610;23.040;2022-10-23T04:56:12;94333.59;;;8.01;100.00
10480;BME280;12789;42.610;23.040;2022-10-23T04:58:40;94334.38;;;7.90;100.00
10480;BME280;12789;42.610;23.040;2022-10-23T05:01:10;94337.69;;;7.92;100.00
10480;BME280;12789;42.610;23.040;2022-10-23T05:03:37;94337.97;;;8.11;100.00
10480;BME280;12789;42.610;23.040;2022-10-23T05:06:05;94343.81;;;8.02;100.00
10480;BME280;12789;42.610;23.040;2022-10-23T05:08:32;94346.41;;;8.02;100.00
10480;BME280;12789;42.610;23.040;2022-10-23T05:11:00;94344.22;;;7.85;100.00
10480;BME280;12789;42.610;23.040;2022-10-23T05:13:27;94358.97;;;7.83;100.00
10480;BME280;12789;42.610;23.040;2022-10-23T05:15:57;94353.81;;;7.83;100.00
10480;BME280;12789;42.610;23.040;2022-10-23T05:18:30;94358.78;;;7.86;100.00
10480;BME280;12789;42.610;23.040;2022-10-23T05:21:01;94352.69;;;7.87;100.00
10480;BME280;12789;42.610;23.040;2022-10-23T05:23:33;94356.97;;;7.76;100.00
10480;BME280;12789;42.610;23.040;2022-10-23T05:26:02;94368.47;;;7.83;100.00
10480;BME280;12789;42.610;23.040;2022-10-23T05:28:30;94356.13;;;7.75;100.00
10480;BME280;12789;42.610;23.040;2022-10-23T05:30:59;94378.56;;;7.86;100.00
10480;BME280;12789;42.610;23.040;2022-10-23T05:33:28;94382.41;;;7.80;100.00
10480;BME280;12789;42.610;23.040;2022-10-23T05:35:57;94380.00;;;7.90;100.00
10480;BME280;12789;42.610;23.040;2022-10-23T05:38:26;94387.66;;;7.91;100.00
10480;BME280;12789;42.610;23.040;2022-10-23T05:40:54;94381.06;;;7.87;100.00
10480;BME280;12789;42.610;23.040;2022-10-23T05:43:21;94387.78;;;8.01;100.00
10480;BME280;12789;42.610;23.040;2022-10-23T05:45:50;94382.72;;;7.88;100.00
10480;BME280;12789;42.610;23.040;2022-10-23T05:48:17;94399.41;;;7.95;100.00
10480;BME280;12789;42.610;23.040;2022-10-23T05:50:45;94389.59;;;8.11;100.00
10480;BME280;12789;42.610;23.040;2022-10-23T05:53:12;94385.56;;;7.96;100.00
10480;BME280;12789;42.610;23.040;2022-10-23T05:55:39;94396.84;;;8.06;100.00
10480;BME280;12789;42.610;23.040;2022-10-23T05:58:06;94398.25;;;7.99;100.00
10480;BME280;12789;42.610;23.040;2022-10-23T06:00:33;94409.38;;;8.23;100.00
10480;BME280;12789;42.610;23.040;2022-10-23T06:03:00;94417.88;;;8.25;100.00
10480;BME280;12789;42.610;23.040;2022-10-23T06:05:28;94425.88;;;8.33;100.00
10480;BME280;12789;42.610;23.040;2022-10-23T06:07:58;94424.59;;;8.39;100.00
10480;BME280;12789;42.610;23.040;2022-10-23T06:10:26;94423.78;;;8.38;100.00
10480;BME280;12789;42.610;23.040;2022-10-23T06:12:53;94392.19;;;8.35;100.00
10480;BME280;12789;42.610;23.040;2022-10-23T06:15:20;94385.59;;;8.31;100.00
10480;BME280;12789;42.610;23.040;2022-10-23T06:17:47;94421.75;;;8.65;100.00
10480;BME280;12789;42.610;23.040;2022-10-23T06:20:14;94436.34;;;8.77;100.00
10480;BME280;12789;42.610;23.040;2022-10-23T06:22:40;94431.91;;;8.90;100.00
10480;BME280;12789;42.610;23.040;2022-10-23T06:25:09;94435.44;;;9.00;100.00
10480;BME280;12789;42.610;23.040;2022-10-23T06:27:36;94427.81;;;9.09;100.00
10480;BME280;12789;42.610;23.040;2022-10-23T06:30:03;94426.41;;;9.05;100.00
10480;BME280;12789;42.610;23.040;2022-10-23T06:32:31;94455.94;;;9.25;100.00
10480;BME280;12789;42.610;23.040;2022-10-23T06:34:58;94437.34;;;9.31;100.00
10480;BME280;12789;42.610;23.040;2022-10-23T06:37:25;94445.13;;;9.53;100.00
10480;BME280;12789;42.610;23.040;2022-10-23T06:39:52;94436.19;;;9.57;100.00
10480;BME280;12789;42.610;23.040;2022-10-23T06:42:20;94457.09;;;9.76;100.00
10480;BME280;12789;42.610;23.040;2022-10-23T06:44:47;94443.69;;;9.82;100.00
10480;BME280;12789;42.610;23.040;2022-10-23T06:47:14;94439.31;;;10.04;100.00
10480;BME280;12789;42.610;23.040;2022-10-23T06:49:41;94429.63;;;10.17;100.00
10480;BME280;12789;42.610;23.040;2022-10-23T06:52:08;94447.84;;;10.27;100.00
10480;BME280;12789;42.610;23.040;2022-10-23T06:54:35;94453.97;;;10.57;100.00
10480;BME280;12789;42.610;23.040;2022-10-23T06:57:03;94442.00;;;10.76;100.00
10480;BME280;12789;42.610;23.040;2022-10-23T06:59:31;94447.03;;;10.98;100.00
10480;BME280;12789;42.610;23.040;2022-10-23T07:01:59;94449.25;;;11.23;100.00
10480;BME280;12789;42.610;23.040;2022-10-23T07:04:26;94469.66;;;11.58;100.00
10480;BME280;12789;42.610;23.040;2022-10-23T07:06:54;94449.63;;;11.69;100.00
10480;BME280;12789;42.610;23.040;2022-10-23T07:09:21;94429.81;;;11.59;100.00
10480;BME280;12789;42.610;23.040;2022-10-23T07:11:48;94444.84;;;11.65;100.00
10480;BME280;12789;42.610;23.040;2022-10-23T07:14:16;94483.41;;;11.69;100.00
10480;BME280;12789;42.610;23.040;2022-10-23T07:16:45;94464.78;;;11.64;100.00
10480;BME280;12789;42.610;23.040;2022-10-23T07:19:12;94428.47;;;12.89;100.00
10480;BME280;12789;42.610;23.040;2022-10-23T07:21:39;94471.84;;;12.41;100.00
10480;BME280;12789;42.610;23.040;2022-10-23T07:24:07;94458.72;;;12.33;100.00
10480;BME280;12789;42.610;23.040;2022-10-23T07:26:34;94477.66;;;12.82;100.00
10480;BME280;12789;42.610;23.040;2022-10-23T07:29:01;94447.28;;;12.92;100.00
10480;BME280;12789;42.610;23.040;2022-10-23T07:31:28;94448.91;;;13.03;100.00
10480;BME280;12789;42.610;23.040;2022-10-23T07:33:57;94453.22;;;13.31;100.00
10480;BME280;12789;42.610;23.040;2022-10-23T07:36:24;94444.16;;;13.53;100.00
10480;BME280;12789;42.610;23.040;2022-10-23T07:38:52;94446.28;;;13.67;100.00
10480;BME280;12789;42.610;23.040;2022-10-23T07:41:19;94440.97;;;13.96;100.00
10480;BME280;12789;42.610;23.040;2022-10-23T07:43:46;94449.72;;;14.31;100.00
10480;BME280;12789;42.610;23.040;2022-10-23T07:46:14;94451.09;;;14.88;100.00
10480;BME280;12789;42.610;23.040;2022-10-23T07:48:41;94459.00;;;14.95;100.00
10480;BME280;12789;42.610;23.040;2022-10-23T07:51:12;94426.69;;;15.14;100.00
10480;BME280;12789;42.610;23.040;2022-10-23T07:53:40;94444.44;;;15.79;100.00
10480;BME280;12789;42.610;23.040;2022-10-23T07:56:12;94419.97;;;15.88;100.00
10480;BME280;12789;42.610;23.040;2022-10-23T07:58:40;94441.69;;;16.22;100.00
10480;BME280;12789;42.610;23.040;2022-10-23T08:01:15;94431.97;;;16.48;100.00
10480;BME280;12789;42.610;23.040;2022-10-23T08:03:43;94427.66;;;16.72;100.00
10480;BME280;12789;42.610;23.040;2022-10-23T08:06:12;94453.84;;;16.80;100.00
10480;BME280;12789;42.610;23.040;2022-10-23T08:08:39;94402.41;;;16.63;100.00
10480;BME280;12789;42.610;23.040;2022-10-23T08:11:08;94411.44;;;16.68;100.00
10480;BME280;12789;42.610;23.040;2022-10-23T08:13:36;94403.63;;;16.92;100.00
10480;BME280;12789;42.610;23.040;2022-10-23T08:16:04;94423.91;;;17.46;100.00
10480;BME280;12789;42.610;23.040;2022-10-23T08:18:32;94415.22;;;17.54;100.00
10480;BME280;12789;42.610;23.040;2022-10-23T08:21:00;94407.69;;;17.51;100.00
10480;BME280;12789;42.610;23.040;2022-10-23T08:23:29;94413.41;;;17.54;100.00
10480;BME280;12789;42.610;23.040;2022-10-23T08:25:57;94411.91;;;17.68;100.00
10480;BME280;12789;42.610;23.040;2022-10-23T08:28:24;94402.84;;;17.86;94.09
10480;BME280;12789;42.610;23.040;2022-10-23T08:30:51;94407.50;;;17.60;90.79
10480;BME280;12789;42.610;23.040;2022-10-23T08:33:19;94412.09;;;18.12;90.29
10480;BME280;12789;42.610;23.040;2022-10-23T08:35:46;94410.31;;;18.13;87.67
10480;BME280;12789;42.610;23.040;2022-10-23T08:38:13;94413.91;;;18.12;87.11
10480;BME280;12789;42.610;23.040;2022-10-23T08:40:45;94402.66;;;18.34;85.06
10480;BME280;12789;42.610;23.040;2022-10-23T08:43:16;94404.34;;;18.27;84.44
10480;BME280;12789;42.610;23.040;2022-10-23T08:45:48;94406.97;;;18.57;83.89
10480;BME280;12789;42.610;23.040;2022-10-23T08:48:19;94412.66;;;18.69;83.35
10480;BME280;12789;42.610;23.040;2022-10-23T08:50:52;94402.41;;;19.04;83.32
10480;BME280;12789;42.610;23.040;2022-10-23T08:53:26;94406.25;;;18.94;83.73
10480;BME280;12789;42.610;23.040;2022-10-23T08:56:01;94404.25;;;19.41;81.95
10480;BME280;12789;42.610;23.040;2022-10-23T08:58:34;94401.00;;;19.39;81.03
10480;BME280;12789;42.610;23.040;2022-10-23T09:01:16;94403.22;;;19.78;80.75
10480;BME280;12789;42.610;23.040;2022-10-23T09:03:49;94407.44;;;19.51;80.85
10480;BME280;12789;42.610;23.040;2022-10-23T09:06:24;94397.84;;;19.72;80.17
10480;BME280;12789;42.610;23.040;2022-10-23T09:08:58;94393.06;;;19.75;78.56
10480;BME280;12789;42.610;23.040;2022-10-23T09:11:36;94398.31;;;19.75;78.92
10480;BME280;12789;42.610;23.040;2022-10-23T09:14:27;94398.72;;;20.01;78.85
10480;BME280;12789;42.610;23.040;2022-10-23T09:17:08;94401.06;;;20.11;78.59
10480;BME280;12789;42.610;23.040;2022-10-23T09:19:38;94399.63;;;20.23;77.82
10480;BME280;12789;42.610;23.040;2022-10-23T09:22:05;94394.13;;;20.53;76.71
10480;BME280;12789;42.610;23.040;2022-10-23T09:24:32;94389.56;;;20.62;75.84
10480;BME280;12789;42.610;23.040;2022-10-23T09:27:03;94400.00;;;20.05;77.26
10480;BME280;12789;42.610;23.040;2022-10-23T09:29:32;94391.50;;;20.39;77.00
10480;BME280;12789;42.610;23.040;2022-10-23T09:32:02;94394.97;;;20.75;75.23
10480;BME280;12789;42.610;23.040;2022-10-23T09:34:31;94388.06;;;20.88;74.95
10480;BME280;12789;42.610;23.040;2022-10-23T09:37:00;94390.94;;;20.93;73.92
10480;BME280;12789;42.610;23.040;2022-10-23T09:39:29;94388.91;;;21.16;74.90
10480;BME280;12789;42.610;23.040;2022-10-23T09:41:57;94389.22;;;21.27;71.76
10480;BME280;12789;42.610;23.040;2022-10-23T09:44:30;94363.44;;;21.02;72.95
10480;BME280;12789;42.610;23.040;2022-10-23T09:46:59;94350.63;;;20.43;73.85
10480;BME280;12789;42.610;23.040;2022-10-23T09:49:28;94383.91;;;21.21;71.41
10480;BME280;12789;42.610;23.040;2022-10-23T09:52:03;94383.44;;;20.76;73.68
10480;BME280;12789;42.610;23.040;2022-10-23T09:54:32;94381.56;;;21.32;72.42
10480;BME280;12789;42.610;23.040;2022-10-23T09:57:05;94348.69;;;21.83;70.90
10480;BME280;12789;42.610;23.040;2022-10-23T09:59:43;94376.00;;;21.00;71.66
10480;BME280;12789;42.610;23.040;2022-10-23T10:02:19;94368.97;;;21.83;69.87
10480;BME280;12789;42.610;23.040;2022-10-23T10:04:47;94367.63;;;22.27;69.82
10480;BME280;12789;42.610;23.040;2022-10-23T10:07:18;94357.88;;;22.34;67.26
10480;BME280;12789;42.610;23.040;2022-10-23T10:09:45;94349.44;;;21.71;68.60
10480;BME280;12789;42.610;23.040;2022-10-23T10:12:28;94349.63;;;22.44;67.41
10480;BME280;12789;42.610;23.040;2022-10-23T10:15:10;94345.50;;;22.94;67.16
10480;BME280;12789;42.610;23.040;2022-10-23T10:17:44;94338.44;;;22.42;65.95
10480;BME280;12789;42.610;23.040;2022-10-23T10:20:35;94336.13;;;22.85;65.74
10480;BME280;12789;42.610;23.040;2022-10-23T10:23:13;94340.84;;;22.37;65.21
10480;BME280;12789;42.610;23.040;2022-10-23T10:25:49;94323.78;;;22.39;65.56
10480;BME280;12789;42.610;23.040;2022-10-23T10:28:29;94324.47;;;22.14;64.45
10480;BME280;12789;42.610;23.040;2022-10-23T10:31:08;94329.59;;;22.88;63.17
10480;BME280;12789;42.610;23.040;2022-10-23T10:33:46;94317.72;;;22.39;64.74
10480;BME280;12789;42.610;23.040;2022-10-23T10:36:28;94315.19;;;22.97;64.21
10480;BME280;12789;42.610;23.040;2022-10-23T10:39:00;94321.03;;;22.60;63.24
10480;BME280;12789;42.610;23.040;2022-10-23T10:41:44;94314.59;;;23.66;61.06
10480;BME280;12789;42.610;23.040;2022-10-23T10:44:34;94297.09;;;23.07;60.41
10480;BME280;12789;42.610;23.040;2022-10-23T10:47:12;94286.94;;;23.30;59.80
10480;BME280;12789;42.610;23.040;2022-10-23T10:49:46;94302.34;;;22.81;60.66
10480;BME280;12789;42.610;23.040;2022-10-23T10:52:21;94289.59;;;23.23;60.13
10480;BME280;12789;42.610;23.040;2022-10-23T10:54:57;94285.72;;;23.32;60.53
10480;BME280;12789;42.610;23.040;2022-10-23T10:57:31;94287.31;;;23.46;59.64
10480;BME280;12789;42.610;23.040;2022-10-23T11:00:03;94287.69;;;22.85;58.04
10480;BME280;12789;42.610;23.040;2022-10-23T11:02:34;94296.44;;;22.79;58.26
10480;BME280;12789;42.610;23.040;2022-10-23T11:05:14;94291.38;;;23.55;57.01
10480;BME280;12789;42.610;23.040;2022-10-23T11:07:52;94287.25;;;22.56;59.35
10480;BME280;12789;42.610;23.040;2022-10-23T11:10:20;94286.41;;;22.42;59.50
10480;BME280;12789;42.610;23.040;2022-10-23T11:12:48;94283.63;;;22.70;58.95
10480;BME280;12789;42.610;23.040;2022-10-23T11:15:19;94276.94;;;22.86;57.80
10480;BME280;12789;42.610;23.040;2022-10-23T11:17:52;94286.47;;;22.94;57.76
10480;BME280;12789;42.610;23.040;2022-10-23T11:20:32;94282.84;;;23.40;58.85
10480;BME280;12789;42.610;23.040;2022-10-23T11:23:11;94264.75;;;23.05;55.90
10480;BME280;12789;42.610;23.040;2022-10-23T11:25:55;94265.06;;;23.93;54.53
10480;BME280;12789;42.610;23.040;2022-10-23T11:28:44;94255.94;;;24.26;53.24
10480;BME280;12789;42.610;23.040;2022-10-23T11:31:19;94248.72;;;24.02;53.94
10480;BME280;12789;42.610;23.040;2022-10-23T11:34:16;94246.44;;;24.12;53.05
10480;BME280;12789;42.610;23.040;2022-10-23T11:36:50;94251.66;;;24.25;54.27
10480;BME280;12789;42.610;23.040;2022-10-23T11:39:23;94249.94;;;24.06;53.17
10480;BME280;12789;42.610;23.040;2022-10-23T11:41:53;94216.34;;;24.00;51.43
10480;BME280;12789;42.610;23.040;2022-10-23T11:44:42;94231.81;;;24.40;51.82
10480;BME280;12789;42.610;23.040;2022-10-23T11:47:25;94233.66;;;25.02;51.52
10480;BME280;12789;42.610;23.040;2022-10-23T11:50:25;94223.72;;;24.97;51.47
10480;BME280;12789;42.610;23.040;2022-10-23T11:52:55;94216.88;;;25.93;48.94
10480;BME280;12789;42.610;23.040;2022-10-23T11:55:25;94227.44;;;24.59;50.78
10480;BME280;12789;42.610;23.040;2022-10-23T11:58:10;94219.16;;;24.80;50.30
10480;BME280;12789;42.610;23.040;2022-10-23T12:00:51;94210.72;;;25.14;49.62
10480;BME280;12789;42.610;23.040;2022-10-23T12:03:23;94209.72;;;24.59;50.41
10480;BME280;12789;42.610;23.040;2022-10-23T12:06:17;94186.78;;;24.96;49.82
10480;BME280;12789;42.610;23.040;2022-10-23T12:08:49;94202.31;;;25.77;49.00
10480;BME280;12789;42.610;23.040;2022-10-23T12:11:25;94181.41;;;25.02;49.77
10480;BME280;12789;42.610;23.040;2022-10-23T12:13:52;94187.25;;;26.54;46.38
10480;BME280;12789;42.610;23.040;2022-10-23T12:16:19;94200.81;;;25.63;48.77
10480;BME280;12789;42.610;23.040;2022-10-23T12:18:48;94201.38;;;25.90;47.75
10480;BME280;12789;42.610;23.040;2022-10-23T12:21:19;94193.25;;;26.91;45.54
10480;BME280;12789;42.610;23.040;2022-10-23T12:27:03;94153.25;;;25.44;47.39
10480;BME280;12789;42.610;23.040;2022-10-23T12:29:42;94196.25;;;24.24;49.41
10480;BME280;12789;42.610;23.040;2022-10-23T12:32:29;94179.53;;;25.70;47.99
10480;BME280;12789;42.610;23.040;2022-10-23T12:35:20;94182.50;;;25.19;49.04
10480;BME280;12789;42.610;23.040;2022-10-23T12:38:04;94193.31;;;24.38;49.63
10480;BME280;12789;42.610;23.040;2022-10-23T12:40:36;94189.31;;;24.23;48.72
10480;BME280;12789;42.610;23.040;2022-10-23T12:43:21;94182.50;;;24.95;48.51
10480;BME280;12789;42.610;23.040;2022-10-23T12:45:50;94186.72;;;25.02;47.62
10480;BME280;12789;42.610;23.040;2022-10-23T12:48:18;94195.31;;;24.98;48.37
10480;BME280;12789;42.610;23.040;2022-10-23T12:50:48;94194.63;;;24.84;48.93
10480;BME280;12789;42.610;23.040;2022-10-23T12:53:19;94179.03;;;24.70;48.42
10480;BME280;12789;42.610;23.040;2022-10-23T12:55:50;94193.06;;;24.77;48.96
10480;BME280;12789;42.610;23.040;2022-10-23T12:58:20;94186.03;;;25.31;47.86
10480;BME280;12789;42.610;23.040;2022-10-23T13:00:52;94196.75;;;24.38;49.21
10480;BME280;12789;42.610;23.040;2022-10-23T13:03:21;94187.09;;;24.81;49.59
10480;BME280;12789;42.610;23.040;2022-10-23T13:05:51;94190.78;;;23.68;51.26
10480;BME280;12789;42.610;23.040;2022-10-23T13:08:21;94181.25;;;24.73;50.23
10480;BME280;12789;42.610;23.040;2022-10-23T13:10:49;94182.81;;;24.56;49.67